createdAt,value
2019-01-27T12:58:11.213Z,97630.03
2019-01-27T13:00:44.394Z,97632.11
2019-01-27T13:03:14.149Z,97641.06
2019-01-27T13:05:43.940Z,97631.15
2019-01-27T13:08:13.683Z,97632.33
2019-01-27T13:10:43.442Z,97635.26
2019-01-27T13:13:13.252Z,97636.75
2019-01-27T13:15:42.965Z,97631.50
2019-01-27T13:18:12.700Z,97630.61
2019-01-27T13:20:42.452Z,97623.73
2019-01-27T13:23:12.212Z,97621.59
2019-01-27T13:25:42.895Z,97630.50
2019-01-27T13:28:12.631Z,97628.93
2019-01-27T13:30:42.562Z,97627.48
2019-01-27T13:33:12.307Z,97629.43
2019-01-27T13:35:42.096Z,97628.44
2019-01-27T13:38:11.823Z,97623.94
2019-01-27T13:40:41.609Z,97632.55
2019-01-27T13:43:11.353Z,97621.31
2019-01-27T13:45:41.075Z,97632.00
2019-01-27T13:48:10.827Z,97632.39
2019-01-27T13:50:40.547Z,97629.14
2019-01-27T13:53:10.293Z,97629.92
2019-01-27T13:55:40.065Z,97627.75
2019-01-27T13:58:09.806Z,97625.67
2019-01-27T14:00:41.726Z,97628.25
2019-01-27T14:03:11.448Z,97621.71
2019-01-27T14:05:41.278Z,97629.23
2019-01-27T14:08:10.991Z,97623.64
2019-01-27T14:10:40.739Z,97621.22
2019-01-27T14:13:10.574Z,97619.77
2019-01-27T14:15:40.602Z,97631.69
2019-01-27T14:18:11.394Z,97633.37
2019-01-27T14:20:41.129Z,97642.69
2019-01-27T14:23:10.882Z,97633.88
2019-01-27T14:25:41.121Z,97629.36
2019-01-27T14:28:12.153Z,97634.90
2019-01-27T14:30:44.502Z,97631.09
2019-01-27T14:33:14.216Z,97626.73
2019-01-27T14:35:43.967Z,97625.11
2019-01-27T14:38:13.708Z,97628.75
2019-01-27T14:40:43.661Z,97629.34
2019-01-27T14:43:13.377Z,97627.16
2019-01-27T14:45:43.147Z,97629.64
2019-01-27T14:48:12.956Z,97631.42
2019-01-27T14:50:47.859Z,97629.78
2019-01-27T14:53:17.590Z,97627.39
2019-01-27T14:55:47.403Z,97634.30
2019-01-27T14:58:17.139Z,97631.73
2019-01-27T15:00:46.885Z,97632.76
2019-01-27T15:03:16.677Z,97635.33
2019-01-27T15:05:46.427Z,97636.66
2019-01-27T15:08:16.154Z,97635.59
2019-01-27T15:10:45.900Z,97641.40
2019-01-27T15:13:15.619Z,97642.77
2019-01-27T15:15:45.431Z,97641.13
2019-01-27T15:18:15.230Z,97645.52
2019-01-27T15:20:48.430Z,97644.19
2019-01-27T15:23:18.150Z,97643.69
2019-01-27T15:25:47.890Z,97645.82
2019-01-27T15:28:17.630Z,97644.53
2019-01-27T15:30:47.397Z,97649.11
2019-01-27T15:33:17.130Z,97650.61
2019-01-27T15:35:46.850Z,97640.42
2019-01-27T15:38:17.745Z,97651.98
2019-01-27T15:40:47.568Z,97651.49
2019-01-27T15:43:17.315Z,97654.95
2019-01-27T15:45:48.021Z,97655.66
2019-01-27T15:48:17.802Z,97654.86
2019-01-27T15:50:47.540Z,97663.81
2019-01-27T15:53:17.260Z,97661.77
2019-01-27T15:55:47.013Z,97663.06
2019-01-27T15:58:16.784Z,97657.78
2019-01-27T16:00:46.535Z,97662.75
2019-01-27T16:03:16.268Z,97663.77
2019-01-27T16:05:46.056Z,97665.53
2019-01-27T16:08:15.777Z,97663.77
2019-01-27T16:10:45.533Z,97669.78
2019-01-27T16:13:15.256Z,97669.48
2019-01-27T16:15:45.019Z,97678.82
2019-01-27T16:18:14.761Z,97676.00
2019-01-27T16:20:44.526Z,97687.20
2019-01-27T16:23:15.909Z,97684.92
2019-01-27T16:25:45.651Z,97693.44
2019-01-27T16:28:15.457Z,97689.09
2019-01-27T16:30:55.533Z,97696.80
2019-01-27T16:33:36.185Z,97693.56
2019-01-27T16:36:05.942Z,97694.48
2019-01-27T16:38:35.782Z,97700.38
2019-01-27T16:41:05.508Z,97705.08
2019-01-27T16:43:35.253Z,97702.20
2019-01-27T16:46:04.995Z,97712.38
2019-01-27T16:48:52.783Z,97714.83
2019-01-27T16:51:22.557Z,97714.11
2019-01-27T16:53:52.321Z,97718.36
2019-01-27T16:56:22.099Z,97721.69
2019-01-27T16:58:51.847Z,97719.69
2019-01-27T17:01:21.633Z,97726.91
2019-01-27T17:03:51.370Z,97731.16
2019-01-27T17:06:21.141Z,97738.88
2019-01-27T17:08:50.874Z,97756.45
2019-01-27T17:11:20.614Z,97751.48
2019-01-27T17:13:50.412Z,97763.71
2019-01-27T17:16:20.226Z,97763.39
2019-01-27T17:18:50.040Z,97767.61
2019-01-27T17:21:19.886Z,97771.73
2019-01-27T17:23:49.700Z,97778.45
2019-01-27T17:26:19.468Z,97781.19
2019-01-27T17:28:49.192Z,97792.94
2019-01-27T17:31:18.950Z,97806.03
2019-01-27T17:33:48.737Z,97807.54
2019-01-27T17:36:18.476Z,97815.02
2019-01-27T17:38:48.257Z,97825.02
2019-01-27T17:41:18.018Z,97821.02
2019-01-27T17:43:47.763Z,97824.77
2019-01-27T17:46:17.525Z,97829.53
2019-01-27T17:48:47.279Z,97830.34
2019-01-27T17:51:17.037Z,97841.45
2019-01-27T17:53:48.120Z,97845.20
2019-01-27T17:56:18.414Z,97843.86
2019-01-27T17:59:11.467Z,97847.23
2019-01-27T18:01:43.713Z,97851.11
2019-01-27T18:04:27.114Z,97854.77
2019-01-27T18:07:04.387Z,97861.92
2019-01-27T18:09:38.668Z,97865.33
2019-01-27T18:12:10.075Z,97868.97
2019-01-27T18:14:40.182Z,97877.78
2019-01-27T18:17:09.995Z,97880.44
2019-01-27T18:19:39.710Z,97886.32
2019-01-27T18:22:09.470Z,97887.60
2019-01-27T18:24:40.473Z,97887.47
2019-01-27T18:27:10.239Z,97894.26
2019-01-27T18:29:40.065Z,97894.48
2019-01-27T18:32:09.793Z,97888.70
2019-01-27T18:34:39.682Z,97892.77
2019-01-27T18:37:09.496Z,97901.02
2019-01-27T18:39:39.226Z,97910.97
2019-01-27T18:42:09.054Z,97911.78
2019-01-27T18:44:38.774Z,97913.73
2019-01-27T18:47:08.559Z,97915.84
2019-01-27T18:49:38.303Z,97923.25
2019-01-27T18:52:08.059Z,97931.70
2019-01-27T18:54:58.663Z,97933.14
2019-01-27T18:57:30.942Z,97934.53
2019-01-27T19:00:02.324Z,97940.94
2019-01-27T19:02:36.312Z,97944.40
2019-01-27T19:05:13.636Z,97948.25
2019-01-27T19:07:45.010Z,97952.01
2019-01-27T19:10:16.401Z,97955.20
2019-01-27T19:12:50.791Z,97958.23
2019-01-27T19:15:38.204Z,97956.59
2019-01-27T19:18:25.568Z,97965.13
2019-01-27T19:20:56.958Z,97968.17
2019-01-27T19:23:30.231Z,97965.09
2019-01-27T19:26:10.648Z,97968.04
2019-01-27T19:28:42.115Z,97968.45
2019-01-27T19:31:22.554Z,97975.17
2019-01-27T19:33:59.977Z,97978.53
2019-01-27T19:36:37.216Z,97979.11
2019-01-27T19:39:13.140Z,97984.28
2019-01-27T19:41:50.761Z,97981.67
2019-01-27T19:44:22.191Z,98000.02
2019-01-27T19:46:56.239Z,97996.33
2019-01-27T19:49:27.714Z,98003.50
2019-01-27T19:51:59.100Z,97996.20
2019-01-27T19:54:46.945Z,98004.37
2019-01-27T19:57:33.603Z,98003.31
2019-01-27T20:00:13.115Z,98007.73
2019-01-27T20:02:44.575Z,98011.11
2019-01-27T20:05:15.996Z,98006.91
2019-01-27T20:07:59.462Z,98012.52
2019-01-27T20:10:46.033Z,98013.23
2019-01-27T20:13:23.535Z,98016.12
2019-01-27T20:16:09.858Z,98018.36
2019-01-27T20:18:53.256Z,98016.31
2019-01-27T20:21:33.227Z,98024.97
2019-01-27T20:24:16.765Z,98031.05
2019-01-27T20:26:57.363Z,98031.23
2019-01-27T20:29:34.787Z,98030.09
2019-01-27T20:32:08.872Z,98038.09
2019-01-27T20:34:43.232Z,98041.70
2019-01-27T20:37:14.607Z,98041.58
2019-01-27T20:39:46.023Z,98041.96
2019-01-27T20:42:22.826Z,98046.34
2019-01-27T20:44:54.224Z,98045.57
2019-01-27T20:47:25.587Z,98043.77
2019-01-27T20:49:56.983Z,98043.95
2019-01-27T20:52:34.012Z,98046.10
2019-01-27T20:55:12.501Z,98042.43
2019-01-27T20:57:43.879Z,98044.22
2019-01-27T21:00:20.746Z,98044.19
2019-01-27T21:03:08.659Z,98048.95
2019-01-27T21:05:48.986Z,98050.62
2019-01-27T21:08:32.244Z,98049.50
2019-01-27T21:11:12.730Z,98048.68
2019-01-27T21:13:50.045Z,98046.19
2019-01-27T21:16:30.281Z,98049.22
2019-01-27T21:19:19.839Z,98049.77
2019-01-27T21:21:49.595Z,98055.78
2019-01-27T21:24:19.360Z,98053.22
2019-01-27T21:26:49.133Z,98060.48
2019-01-27T21:29:18.864Z,98060.57
2019-01-27T21:31:48.673Z,98061.89
2019-01-27T21:34:18.392Z,98064.00
2019-01-27T21:36:48.118Z,98064.83
2019-01-27T21:39:17.847Z,98065.20
2019-01-27T21:41:47.676Z,98069.42
2019-01-27T21:44:17.451Z,98064.28
2019-01-27T21:46:47.215Z,98066.44
2019-01-27T21:49:18.572Z,98069.12
2019-01-27T21:51:48.418Z,98069.16
2019-01-27T21:54:18.224Z,98065.84
2019-01-27T21:56:48.048Z,98074.01
2019-01-27T21:59:17.785Z,98065.94
2019-01-27T22:01:47.549Z,98070.17
2019-01-27T22:04:17.347Z,98076.52
2019-01-27T22:06:47.133Z,98067.97
2019-01-27T22:09:16.958Z,98069.70
2019-01-27T22:11:46.804Z,98070.09
2019-01-27T22:14:17.651Z,98072.54
2019-01-27T22:16:47.429Z,98067.86
2019-01-27T22:19:17.167Z,98064.98
2019-01-27T22:21:46.997Z,98061.70
2019-01-27T22:24:16.737Z,98058.70
2019-01-27T22:26:46.710Z,98060.91
2019-01-27T22:29:16.446Z,98062.12
2019-01-27T22:31:46.213Z,98075.70
2019-01-27T22:34:16.002Z,98071.86
2019-01-27T22:36:45.766Z,98064.64
2019-01-27T22:39:15.499Z,98056.06
2019-01-27T22:41:45.263Z,98058.58
2019-01-27T22:44:14.965Z,98057.31
2019-01-27T22:46:44.678Z,98058.66
2019-01-27T22:49:14.438Z,98059.92
2019-01-27T22:51:45.815Z,98061.25
2019-01-27T22:54:15.541Z,98057.75
2019-01-27T22:56:46.362Z,98058.62
2019-01-27T22:59:16.092Z,98052.18
2019-01-27T23:01:45.917Z,98053.50
2019-01-27T23:04:15.648Z,98052.09
2019-01-27T23:06:45.400Z,98067.55
2019-01-27T23:09:16.792Z,98073.11
2019-01-27T23:11:46.558Z,98064.11
2019-01-27T23:14:16.293Z,98074.34
2019-01-27T23:16:46.052Z,98061.09
2019-01-27T23:19:15.760Z,98072.87
2019-01-27T23:21:45.518Z,98072.91
2019-01-27T23:24:15.279Z,98067.72
2019-01-27T23:26:45.085Z,98070.66
2019-01-27T23:29:14.822Z,98070.31
2019-01-27T23:31:44.655Z,98073.25
2019-01-27T23:34:15.345Z,98071.95
2019-01-27T23:36:45.098Z,98074.41
2019-01-27T23:39:14.829Z,98078.30
2019-01-27T23:41:44.742Z,98081.68
2019-01-27T23:44:14.452Z,98078.66
2019-01-27T23:46:44.216Z,98079.58
2019-01-27T23:49:13.946Z,98081.22
2019-01-27T23:51:43.694Z,98082.05
2019-01-27T23:54:13.506Z,98082.46
2019-01-27T23:56:43.250Z,98098.69
2019-01-27T23:59:12.991Z,98084.98
